Sunshine — WDE6618 — position and weather

sailwx.info

Track history (hours):
 
Tides and Currents Weather Stations Pressure Air Temp Water Temp Dewpoint Dewpoint Depression Visibility Wind Speed Wind Dir Waves Ship Positions

Sunshine

Owner: S/V Sunshine, Encinitas, CA. More information available from US FCC via Universal Licensing System and Coast Guard Vessel Documentation Center.

Last reported at 2017-Oct-02 01:44 UTC. Time now 2017-Oct-19 16:22 UTC.
Position N 32°43' W 117°14'.
Warning: this ship's position is 17 days out of date.

Length 14 m.

Type: Sailing vessel. MMSI: 367382490.

Date/timePositionNaut miles runAvg speedWind from/ knotsBaromVisibWave heightAir tempDewpointWater temp
2017-Oct-02 01:44N 32°43' W 117°14'1 4.3
2017-Oct-02 01:30N 32°42' W 117°14'2 4.2
2017-Oct-02 00:58N 32°40' W 117°16'3 7.0
2017-Oct-02 00:30N 32°43' W 117°17'3 6.7
2017-Oct-02 00:00N 32°47' W 117°17'3 6.4
2017-Oct-01 23:30N 32°50' W 117°18'3 6.3
2017-Oct-01 23:00N 32°53' W 117°20'3 7.0
2017-Oct-01 22:30N 32°55' W 117°23'4 7.2
2017-Oct-01 22:00N 32°57' W 117°26'4 7.0
2017-Oct-01 21:30N 32°60' W 117°29'3 6.9
2017-Oct-01 21:00N 33°02' W 117°32'3 6.8
2017-Oct-01 20:30N 33°04' W 117°35'4 7.0
2017-Oct-01 20:00N 33°06' W 117°39'4 7.0
2017-Oct-01 19:30N 33°07' W 117°43'4 7.4
2017-Oct-01 19:00N 33°07' W 117°47'3 6.1
2017-Oct-01 18:29N 33°08' W 117°51'3 6.9
2017-Oct-01 18:00N 33°09' W 117°54'3 6.7
2017-Oct-01 17:29N 33°11' W 117°58'4 7.0
2017-Oct-01 16:54N 33°13' W 118°02'3 7.2
2017-Oct-01 16:30N 33°15' W 118°05'  
2017-Sep-27 14:37N 33°24' W 118°22'  
Track history (hours):
 
Tides and Currents Weather Stations Pressure Air Temp Water Temp Dewpoint Dewpoint Depression Visibility Wind Speed Wind Dir Waves Ship Positions

Sunshine

Owner: S/V Sunshine, Encinitas, CA. More information available from US FCC via Universal Licensing System and Coast Guard Vessel Documentation Center.

Last reported at 2017-Oct-02 01:44 UTC. Time now 2017-Oct-19 16:22 UTC.
Position N 32°43' W 117°14'.
Warning: this ship's position is 17 days out of date.

Length 14 m.

Type: Sailing vessel. MMSI: 367382490.

Date/timePositionNaut miles runAvg speedWind from/ knotsBaromVisibWave heightAir tempDewpointWater temp
2017-Oct-02 01:44N 32°43' W 117°14'1 4.3
2017-Oct-02 01:30N 32°42' W 117°14'2 4.2
2017-Oct-02 00:58N 32°40' W 117°16'3 7.0
2017-Oct-02 00:30N 32°43' W 117°17'3 6.7
2017-Oct-02 00:00N 32°47' W 117°17'3 6.4
2017-Oct-01 23:30N 32°50' W 117°18'3 6.3
2017-Oct-01 23:00N 32°53' W 117°20'3 7.0
2017-Oct-01 22:30N 32°55' W 117°23'4 7.2
2017-Oct-01 22:00N 32°57' W 117°26'4 7.0
2017-Oct-01 21:30N 32°60' W 117°29'3 6.9
2017-Oct-01 21:00N 33°02' W 117°32'3 6.8
2017-Oct-01 20:30N 33°04' W 117°35'4 7.0
2017-Oct-01 20:00N 33°06' W 117°39'4 7.0
2017-Oct-01 19:30N 33°07' W 117°43'4 7.4
2017-Oct-01 19:00N 33°07' W 117°47'3 6.1
2017-Oct-01 18:29N 33°08' W 117°51'3 6.9
2017-Oct-01 18:00N 33°09' W 117°54'3 6.7
2017-Oct-01 17:29N 33°11' W 117°58'4 7.0
2017-Oct-01 16:54N 33°13' W 118°02'3 7.2
2017-Oct-01 16:30N 33°15' W 118°05'  
2017-Sep-27 14:37N 33°24' W 118°22'  

Dump ship's entire track history